sensor_id;sensor_type;location;lat;lon;timestamp;P1;durP1;ratioP1;P2;durP2;ratioP2
16977;SDS011;8605;52.548;4.918;2023-03-01T00:02:26;9.47;;;5.37;;
16977;SDS011;8605;52.548;4.918;2023-03-01T00:07:29;9.37;;;5.67;;
16977;SDS011;8605;52.548;4.918;2023-03-01T00:12:33;13.73;;;6.23;;
16977;SDS011;8605;52.548;4.918;2023-03-01T00:17:37;9.63;;;6.17;;
16977;SDS011;8605;52.548;4.918;2023-03-01T00:22:40;12.20;;;6.20;;
16977;SDS011;8605;52.548;4.918;2023-03-01T00:27:44;10.70;;;6.47;;
16977;SDS011;8605;52.548;4.918;2023-03-01T00:32:50;13.27;;;7.17;;
16977;SDS011;8605;52.548;4.918;2023-03-01T00:37:53;13.27;;;6.37;;
16977;SDS011;8605;52.548;4.918;2023-03-01T00:43:00;11.77;;;5.97;;
16977;SDS011;8605;52.548;4.918;2023-03-01T00:48:03;13.07;;;6.63;;
16977;SDS011;8605;52.548;4.918;2023-03-01T00:53:07;17.43;;;7.33;;
16977;SDS011;8605;52.548;4.918;2023-03-01T00:58:12;12.13;;;6.53;;
16977;SDS011;8605;52.548;4.918;2023-03-01T01:03:14;13.00;;;6.43;;
16977;SDS011;8605;52.548;4.918;2023-03-01T01:08:17;11.70;;;6.93;;
16977;SDS011;8605;52.548;4.918;2023-03-01T01:13:22;10.10;;;5.90;;
16977;SDS011;8605;52.548;4.918;2023-03-01T01:18:24;14.77;;;7.57;;
16977;SDS011;8605;52.548;4.918;2023-03-01T01:23:27;12.70;;;7.07;;
16977;SDS011;8605;52.548;4.918;2023-03-01T01:28:32;16.17;;;7.53;;
16977;SDS011;8605;52.548;4.918;2023-03-01T01:33:35;11.03;;;6.23;;
16977;SDS011;8605;52.548;4.918;2023-03-01T01:38:38;15.97;;;7.13;;
16977;SDS011;8605;52.548;4.918;2023-03-01T01:43:45;13.17;;;7.73;;
16977;SDS011;8605;52.548;4.918;2023-03-01T01:48:52;13.37;;;8.07;;
16977;SDS011;8605;52.548;4.918;2023-03-01T01:53:58;12.80;;;6.80;;
16977;SDS011;8605;52.548;4.918;2023-03-01T01:59:03;12.37;;;7.60;;
16977;SDS011;8605;52.548;4.918;2023-03-01T02:04:06;15.00;;;7.87;;
16977;SDS011;8605;52.548;4.918;2023-03-01T02:09:11;14.53;;;8.03;;
16977;SDS011;8605;52.548;4.918;2023-03-01T02:14:17;14.90;;;7.60;;
16977;SDS011;8605;52.548;4.918;2023-03-01T02:19:22;14.87;;;7.57;;
16977;SDS011;8605;52.548;4.918;2023-03-01T02:24:35;14.07;;;8.20;;
16977;SDS011;8605;52.548;4.918;2023-03-01T02:29:44;16.60;;;8.27;;
16977;SDS011;8605;52.548;4.918;2023-03-01T02:34:47;18.13;;;8.67;;
16977;SDS011;8605;52.548;4.918;2023-03-01T02:39:51;18.37;;;8.53;;
16977;SDS011;8605;52.548;4.918;2023-03-01T02:45:00;15.43;;;8.07;;
16977;SDS011;8605;52.548;4.918;2023-03-01T02:50:09;14.73;;;7.07;;
16977;SDS011;8605;52.548;4.918;2023-03-01T02:55:17;14.90;;;8.20;;
16977;SDS011;8605;52.548;4.918;2023-03-01T03:00:23;16.37;;;7.57;;
16977;SDS011;8605;52.548;4.918;2023-03-01T03:05:28;15.20;;;8.90;;
16977;SDS011;8605;52.548;4.918;2023-03-01T03:10:34;13.57;;;7.50;;
16977;SDS011;8605;52.548;4.918;2023-03-01T03:15:39;15.43;;;8.33;;
16977;SDS011;8605;52.548;4.918;2023-03-01T03:20:43;15.23;;;8.40;;
16977;SDS011;8605;52.548;4.918;2023-03-01T03:25:47;16.90;;;6.77;;
16977;SDS011;8605;52.548;4.918;2023-03-01T03:30:52;15.10;;;8.03;;
16977;SDS011;8605;52.548;4.918;2023-03-01T03:35:55;19.77;;;7.90;;
16977;SDS011;8605;52.548;4.918;2023-03-01T03:41:02;11.87;;;7.73;;
16977;SDS011;8605;52.548;4.918;2023-03-01T03:46:08;16.93;;;7.30;;
16977;SDS011;8605;52.548;4.918;2023-03-01T03:51:11;12.33;;;7.73;;
16977;SDS011;8605;52.548;4.918;2023-03-01T03:56:14;16.13;;;7.17;;
16977;SDS011;8605;52.548;4.918;2023-03-01T04:01:19;13.00;;;7.03;;
16977;SDS011;8605;52.548;4.918;2023-03-01T04:06:22;13.23;;;6.80;;
16977;SDS011;8605;52.548;4.918;2023-03-01T04:11:25;12.40;;;7.10;;
16977;SDS011;8605;52.548;4.918;2023-03-01T04:16:32;19.23;;;9.40;;
16977;SDS011;8605;52.548;4.918;2023-03-01T04:21:35;18.90;;;9.37;;
16977;SDS011;8605;52.548;4.918;2023-03-01T04:26:38;12.90;;;6.63;;
16977;SDS011;8605;52.548;4.918;2023-03-01T04:31:42;12.03;;;6.57;;
16977;SDS011;8605;52.548;4.918;2023-03-01T04:36:45;16.00;;;7.80;;
16977;SDS011;8605;52.548;4.918;2023-03-01T04:41:48;20.93;;;8.70;;
16977;SDS011;8605;52.548;4.918;2023-03-01T04:46:52;20.77;;;8.10;;
16977;SDS011;8605;52.548;4.918;2023-03-01T04:51:56;26.03;;;8.17;;
16977;SDS011;8605;52.548;4.918;2023-03-01T04:57:03;19.83;;;9.47;;
16977;SDS011;8605;52.548;4.918;2023-03-01T05:02:09;21.20;;;9.83;;
16977;SDS011;8605;52.548;4.918;2023-03-01T05:07:12;21.00;;;10.20;;
16977;SDS011;8605;52.548;4.918;2023-03-01T05:12:20;19.23;;;9.40;;
16977;SDS011;8605;52.548;4.918;2023-03-01T05:17:24;29.30;;;11.87;;
16977;SDS011;8605;52.548;4.918;2023-03-01T05:22:27;18.80;;;8.97;;
16977;SDS011;8605;52.548;4.918;2023-03-01T05:27:30;17.47;;;8.63;;
16977;SDS011;8605;52.548;4.918;2023-03-01T05:32:34;16.13;;;8.60;;
16977;SDS011;8605;52.548;4.918;2023-03-01T05:37:38;13.10;;;7.23;;
16977;SDS011;8605;52.548;4.918;2023-03-01T05:42:45;16.93;;;8.47;;
16977;SDS011;8605;52.548;4.918;2023-03-01T05:47:50;14.43;;;7.20;;
16977;SDS011;8605;52.548;4.918;2023-03-01T05:52:59;11.97;;;7.17;;
16977;SDS011;8605;52.548;4.918;2023-03-01T05:58:04;15.23;;;8.30;;
16977;SDS011;8605;52.548;4.918;2023-03-01T06:03:10;17.20;;;9.20;;
16977;SDS011;8605;52.548;4.918;2023-03-01T06:08:13;16.43;;;7.43;;
16977;SDS011;8605;52.548;4.918;2023-03-01T06:13:16;15.10;;;7.73;;
16977;SDS011;8605;52.548;4.918;2023-03-01T06:18:20;16.80;;;9.13;;
16977;SDS011;8605;52.548;4.918;2023-03-01T06:23:23;19.63;;;10.17;;
16977;SDS011;8605;52.548;4.918;2023-03-01T06:28:27;14.73;;;8.27;;
16977;SDS011;8605;52.548;4.918;2023-03-01T06:33:34;15.37;;;8.00;;
16977;SDS011;8605;52.548;4.918;2023-03-01T06:38:37;18.43;;;8.10;;
16977;SDS011;8605;52.548;4.918;2023-03-01T06:43:42;18.60;;;9.67;;
16977;SDS011;8605;52.548;4.918;2023-03-01T06:48:46;13.80;;;7.10;;
16977;SDS011;8605;52.548;4.918;2023-03-01T06:53:49;14.23;;;7.23;;
16977;SDS011;8605;52.548;4.918;2023-03-01T06:58:52;11.67;;;6.53;;
16977;SDS011;8605;52.548;4.918;2023-03-01T07:03:56;12.30;;;7.23;;
16977;SDS011;8605;52.548;4.918;2023-03-01T07:08:59;12.20;;;6.57;;
16977;SDS011;8605;52.548;4.918;2023-03-01T07:14:02;13.30;;;7.40;;
16977;SDS011;8605;52.548;4.918;2023-03-01T07:19:06;13.13;;;6.43;;
16977;SDS011;8605;52.548;4.918;2023-03-01T07:24:09;13.73;;;7.73;;
16977;SDS011;8605;52.548;4.918;2023-03-01T07:29:12;14.73;;;7.17;;
16977;SDS011;8605;52.548;4.918;2023-03-01T07:34:16;12.60;;;7.33;;
16977;SDS011;8605;52.548;4.918;2023-03-01T07:39:19;9.63;;;6.07;;
16977;SDS011;8605;52.548;4.918;2023-03-01T07:44:22;14.23;;;7.93;;
16977;SDS011;8605;52.548;4.918;2023-03-01T07:49:26;13.33;;;7.17;;
16977;SDS011;8605;52.548;4.918;2023-03-01T07:54:31;12.70;;;8.03;;
16977;SDS011;8605;52.548;4.918;2023-03-01T07:59:34;12.80;;;8.03;;
16977;SDS011;8605;52.548;4.918;2023-03-01T08:04:38;15.47;;;8.27;;
16977;SDS011;8605;52.548;4.918;2023-03-01T08:09:41;13.97;;;7.30;;
16977;SDS011;8605;52.548;4.918;2023-03-01T08:14:44;16.90;;;8.87;;
16977;SDS011;8605;52.548;4.918;2023-03-01T08:19:48;16.00;;;9.30;;
16977;SDS011;8605;52.548;4.918;2023-03-01T08:24:51;17.87;;;9.13;;
16977;SDS011;8605;52.548;4.918;2023-03-01T08:29:53;14.50;;;8.13;;
16977;SDS011;8605;52.548;4.918;2023-03-01T08:34:58;12.30;;;7.90;;
16977;SDS011;8605;52.548;4.918;2023-03-01T08:40:00;14.60;;;9.00;;
16977;SDS011;8605;52.548;4.918;2023-03-01T08:45:09;16.80;;;9.73;;
16977;SDS011;8605;52.548;4.918;2023-03-01T08:50:14;15.57;;;9.57;;
16977;SDS011;8605;52.548;4.918;2023-03-01T08:55:18;19.17;;;9.87;;
16977;SDS011;8605;52.548;4.918;2023-03-01T09:00:21;18.17;;;10.70;;
16977;SDS011;8605;52.548;4.918;2023-03-01T09:05:25;24.30;;;10.63;;
16977;SDS011;8605;52.548;4.918;2023-03-01T09:10:28;31.37;;;13.10;;
16977;SDS011;8605;52.548;4.918;2023-03-01T09:15:31;21.13;;;12.37;;
16977;SDS011;8605;52.548;4.918;2023-03-01T09:20:36;23.90;;;11.83;;
16977;SDS011;8605;52.548;4.918;2023-03-01T09:25:39;18.03;;;10.37;;
16977;SDS011;8605;52.548;4.918;2023-03-01T09:30:42;24.20;;;11.67;;
16977;SDS011;8605;52.548;4.918;2023-03-01T09:35:46;17.87;;;10.47;;
16977;SDS011;8605;52.548;4.918;2023-03-01T09:40:49;16.17;;;10.00;;
16977;SDS011;8605;52.548;4.918;2023-03-01T09:45:52;25.33;;;10.97;;
16977;SDS011;8605;52.548;4.918;2023-03-01T09:50:58;21.70;;;10.93;;
16977;SDS011;8605;52.548;4.918;2023-03-01T09:56:05;18.23;;;9.23;;
16977;SDS011;8605;52.548;4.918;2023-03-01T10:01:20;19.17;;;10.97;;
16977;SDS011;8605;52.548;4.918;2023-03-01T10:06:34;16.63;;;9.20;;
16977;SDS011;8605;52.548;4.918;2023-03-01T10:11:38;18.17;;;10.40;;
16977;SDS011;8605;52.548;4.918;2023-03-01T10:16:43;12.50;;;7.40;;
16977;SDS011;8605;52.548;4.918;2023-03-01T10:21:52;18.03;;;9.70;;
16977;SDS011;8605;52.548;4.918;2023-03-01T10:26:56;18.13;;;8.67;;
16977;SDS011;8605;52.548;4.918;2023-03-01T10:32:00;14.50;;;8.27;;
16977;SDS011;8605;52.548;4.918;2023-03-01T10:37:10;13.73;;;8.77;;
16977;SDS011;8605;52.548;4.918;2023-03-01T10:42:19;12.83;;;7.77;;
16977;SDS011;8605;52.548;4.918;2023-03-01T10:47:27;15.20;;;7.77;;
16977;SDS011;8605;52.548;4.918;2023-03-01T10:52:33;16.00;;;9.57;;
16977;SDS011;8605;52.548;4.918;2023-03-01T10:57:46;15.43;;;9.30;;
16977;SDS011;8605;52.548;4.918;2023-03-01T11:02:50;12.77;;;7.13;;
16977;SDS011;8605;52.548;4.918;2023-03-01T11:07:56;15.07;;;7.20;;
16977;SDS011;8605;52.548;4.918;2023-03-01T11:13:07;10.23;;;6.73;;
16977;SDS011;8605;52.548;4.918;2023-03-01T11:18:18;9.50;;;5.30;;
16977;SDS011;8605;52.548;4.918;2023-03-01T11:23:32;10.97;;;5.63;;
16977;SDS011;8605;52.548;4.918;2023-03-01T11:28:36;7.70;;;4.97;;
16977;SDS011;8605;52.548;4.918;2023-03-01T11:33:41;7.90;;;4.60;;
16977;SDS011;8605;52.548;4.918;2023-03-01T11:38:48;9.37;;;4.67;;
16977;SDS011;8605;52.548;4.918;2023-03-01T11:43:53;6.60;;;4.37;;
16977;SDS011;8605;52.548;4.918;2023-03-01T11:49:03;6.03;;;4.20;;
16977;SDS011;8605;52.548;4.918;2023-03-01T11:54:17;6.90;;;3.97;;
16977;SDS011;8605;52.548;4.918;2023-03-01T12:10:37;6.77;;;4.07;;
16977;SDS011;8605;52.548;4.918;2023-03-01T12:15:48;7.13;;;3.80;;
16977;SDS011;8605;52.548;4.918;2023-03-01T12:20:58;6.50;;;4.03;;
16977;SDS011;8605;52.548;4.918;2023-03-01T12:26:10;9.40;;;4.60;;
16977;SDS011;8605;52.548;4.918;2023-03-01T12:31:20;6.47;;;4.30;;
16977;SDS011;8605;52.548;4.918;2023-03-01T12:36:49;7.77;;;4.90;;
16977;SDS011;8605;52.548;4.918;2023-03-01T12:42:01;12.77;;;6.53;;
16977;SDS011;8605;52.548;4.918;2023-03-01T12:47:10;13.00;;;7.50;;
16977;SDS011;8605;52.548;4.918;2023-03-01T12:52:19;9.93;;;6.27;;
16977;SDS011;8605;52.548;4.918;2023-03-01T12:57:28;11.73;;;5.63;;
16977;SDS011;8605;52.548;4.918;2023-03-01T13:02:41;9.73;;;5.40;;
16977;SDS011;8605;52.548;4.918;2023-03-01T13:07:50;13.67;;;6.73;;
16977;SDS011;8605;52.548;4.918;2023-03-01T13:13:20;18.43;;;6.60;;
16977;SDS011;8605;52.548;4.918;2023-03-01T13:18:28;20.40;;;10.77;;
16977;SDS011;8605;52.548;4.918;2023-03-01T13:23:34;16.63;;;9.53;;
16977;SDS011;8605;52.548;4.918;2023-03-01T13:28:50;21.20;;;10.60;;
16977;SDS011;8605;52.548;4.918;2023-03-01T13:33:54;14.60;;;7.43;;
16977;SDS011;8605;52.548;4.918;2023-03-01T13:38:58;17.73;;;8.17;;
16977;SDS011;8605;52.548;4.918;2023-03-01T13:44:03;17.00;;;8.03;;
16977;SDS011;8605;52.548;4.918;2023-03-01T13:49:15;22.17;;;8.80;;
16977;SDS011;8605;52.548;4.918;2023-03-01T13:54:23;17.97;;;9.13;;
16977;SDS011;8605;52.548;4.918;2023-03-01T13:59:29;19.57;;;9.50;;
16977;SDS011;8605;52.548;4.918;2023-03-01T14:04:32;16.27;;;7.87;;
16977;SDS011;8605;52.548;4.918;2023-03-01T14:09:37;10.27;;;6.77;;
16977;SDS011;8605;52.548;4.918;2023-03-01T14:14:45;17.17;;;7.83;;
16977;SDS011;8605;52.548;4.918;2023-03-01T14:19:54;12.00;;;7.30;;
16977;SDS011;8605;52.548;4.918;2023-03-01T14:24:59;13.27;;;6.83;;
16977;SDS011;8605;52.548;4.918;2023-03-01T14:30:09;13.47;;;6.97;;
16977;SDS011;8605;52.548;4.918;2023-03-01T14:35:19;15.40;;;7.50;;
16977;SDS011;8605;52.548;4.918;2023-03-01T14:40:24;10.00;;;5.50;;
16977;SDS011;8605;52.548;4.918;2023-03-01T14:45:30;10.80;;;5.47;;
16977;SDS011;8605;52.548;4.918;2023-03-01T14:50:33;14.17;;;7.47;;
16977;SDS011;8605;52.548;4.918;2023-03-01T14:55:37;11.23;;;6.40;;
16977;SDS011;8605;52.548;4.918;2023-03-01T15:00:46;13.43;;;6.10;;
16977;SDS011;8605;52.548;4.918;2023-03-01T15:05:52;11.03;;;5.93;;
16977;SDS011;8605;52.548;4.918;2023-03-01T15:10:56;11.77;;;6.87;;
16977;SDS011;8605;52.548;4.918;2023-03-01T15:16:03;11.07;;;6.17;;
16977;SDS011;8605;52.548;4.918;2023-03-01T15:21:09;15.20;;;7.30;;
16977;SDS011;8605;52.548;4.918;2023-03-01T15:26:23;9.63;;;5.87;;
16977;SDS011;8605;52.548;4.918;2023-03-01T15:31:29;8.17;;;4.60;;
16977;SDS011;8605;52.548;4.918;2023-03-01T15:36:38;9.07;;;4.73;;
16977;SDS011;8605;52.548;4.918;2023-03-01T15:41:46;10.07;;;5.33;;
16977;SDS011;8605;52.548;4.918;2023-03-01T15:46:51;6.63;;;4.00;;
16977;SDS011;8605;52.548;4.918;2023-03-01T15:51:54;11.93;;;5.20;;
16977;SDS011;8605;52.548;4.918;2023-03-01T15:56:58;9.50;;;5.03;;
16977;SDS011;8605;52.548;4.918;2023-03-01T16:02:07;8.33;;;5.20;;
16977;SDS011;8605;52.548;4.918;2023-03-01T16:07:11;12.67;;;6.57;;
16977;SDS011;8605;52.548;4.918;2023-03-01T16:12:14;13.20;;;7.67;;
16977;SDS011;8605;52.548;4.918;2023-03-01T16:17:19;9.77;;;5.87;;
16977;SDS011;8605;52.548;4.918;2023-03-01T16:22:22;10.50;;;5.47;;
16977;SDS011;8605;52.548;4.918;2023-03-01T16:27:26;12.43;;;6.53;;
16977;SDS011;8605;52.548;4.918;2023-03-01T16:32:31;11.83;;;6.63;;
16977;SDS011;8605;52.548;4.918;2023-03-01T16:37:34;15.07;;;6.17;;
16977;SDS011;8605;52.548;4.918;2023-03-01T16:42:38;10.87;;;6.27;;
16977;SDS011;8605;52.548;4.918;2023-03-01T16:47:43;13.13;;;6.00;;
16977;SDS011;8605;52.548;4.918;2023-03-01T16:52:46;16.90;;;6.23;;
16977;SDS011;8605;52.548;4.918;2023-03-01T16:57:49;8.60;;;5.43;;
16977;SDS011;8605;52.548;4.918;2023-03-01T17:02:53;14.10;;;6.07;;
16977;SDS011;8605;52.548;4.918;2023-03-01T17:07:57;11.37;;;6.30;;
16977;SDS011;8605;52.548;4.918;2023-03-01T17:13:01;9.50;;;6.67;;
16977;SDS011;8605;52.548;4.918;2023-03-01T17:18:06;11.50;;;5.80;;
16977;SDS011;8605;52.548;4.918;2023-03-01T17:23:09;14.70;;;6.70;;
16977;SDS011;8605;52.548;4.918;2023-03-01T17:28:12;11.67;;;7.50;;
16977;SDS011;8605;52.548;4.918;2023-03-01T17:33:17;10.90;;;6.53;;
16977;SDS011;8605;52.548;4.918;2023-03-01T17:38:21;14.07;;;7.37;;
16977;SDS011;8605;52.548;4.918;2023-03-01T17:43:24;13.33;;;6.57;;
16977;SDS011;8605;52.548;4.918;2023-03-01T17:48:28;10.73;;;6.07;;
16977;SDS011;8605;52.548;4.918;2023-03-01T17:53:31;12.77;;;6.47;;
16977;SDS011;8605;52.548;4.918;2023-03-01T17:58:34;14.10;;;6.73;;
16977;SDS011;8605;52.548;4.918;2023-03-01T18:03:41;13.63;;;6.63;;
16977;SDS011;8605;52.548;4.918;2023-03-01T18:08:48;12.60;;;6.40;;
16977;SDS011;8605;52.548;4.918;2023-03-01T18:13:52;11.40;;;6.97;;
16977;SDS011;8605;52.548;4.918;2023-03-01T18:18:56;12.90;;;7.27;;
16977;SDS011;8605;52.548;4.918;2023-03-01T18:23:59;15.07;;;7.80;;
16977;SDS011;8605;52.548;4.918;2023-03-01T18:29:02;17.07;;;9.73;;
16977;SDS011;8605;52.548;4.918;2023-03-01T18:34:08;17.07;;;9.30;;
16977;SDS011;8605;52.548;4.918;2023-03-01T18:39:13;12.17;;;6.93;;
16977;SDS011;8605;52.548;4.918;2023-03-01T18:44:18;10.87;;;7.03;;
16977;SDS011;8605;52.548;4.918;2023-03-01T18:49:22;15.80;;;7.37;;
16977;SDS011;8605;52.548;4.918;2023-03-01T18:54:25;18.07;;;7.93;;
16977;SDS011;8605;52.548;4.918;2023-03-01T18:59:28;13.93;;;6.17;;
16977;SDS011;8605;52.548;4.918;2023-03-01T19:04:33;16.27;;;7.80;;
16977;SDS011;8605;52.548;4.918;2023-03-01T19:09:35;16.10;;;7.77;;
16977;SDS011;8605;52.548;4.918;2023-03-01T19:14:38;17.87;;;7.97;;
16977;SDS011;8605;52.548;4.918;2023-03-01T19:19:43;12.97;;;7.53;;
16977;SDS011;8605;52.548;4.918;2023-03-01T19:24:47;13.53;;;7.30;;
16977;SDS011;8605;52.548;4.918;2023-03-01T19:29:50;16.27;;;7.73;;
16977;SDS011;8605;52.548;4.918;2023-03-01T19:34:54;18.67;;;7.27;;
16977;SDS011;8605;52.548;4.918;2023-03-01T19:39:57;17.37;;;8.43;;
16977;SDS011;8605;52.548;4.918;2023-03-01T19:45:00;13.50;;;7.60;;
16977;SDS011;8605;52.548;4.918;2023-03-01T19:50:05;13.93;;;7.00;;
16977;SDS011;8605;52.548;4.918;2023-03-01T19:55:08;18.13;;;8.50;;
16977;SDS011;8605;52.548;4.918;2023-03-01T20:00:12;14.93;;;7.30;;
16977;SDS011;8605;52.548;4.918;2023-03-01T20:05:17;18.30;;;9.33;;
16977;SDS011;8605;52.548;4.918;2023-03-01T20:10:20;18.50;;;8.97;;
16977;SDS011;8605;52.548;4.918;2023-03-01T20:15:23;16.33;;;7.87;;
16977;SDS011;8605;52.548;4.918;2023-03-01T20:20:27;16.77;;;7.80;;
16977;SDS011;8605;52.548;4.918;2023-03-01T20:25:30;19.07;;;8.63;;
16977;SDS011;8605;52.548;4.918;2023-03-01T20:30:33;17.40;;;7.87;;
16977;SDS011;8605;52.548;4.918;2023-03-01T20:35:40;18.97;;;9.27;;
16977;SDS011;8605;52.548;4.918;2023-03-01T20:40:43;12.63;;;8.53;;
16977;SDS011;8605;52.548;4.918;2023-03-01T20:45:46;17.87;;;9.17;;
16977;SDS011;8605;52.548;4.918;2023-03-01T20:50:50;19.23;;;9.17;;
16977;SDS011;8605;52.548;4.918;2023-03-01T20:55:53;15.90;;;9.10;;
16977;SDS011;8605;52.548;4.918;2023-03-01T21:00:56;20.77;;;9.03;;
16977;SDS011;8605;52.548;4.918;2023-03-01T21:06:02;17.83;;;10.20;;
16977;SDS011;8605;52.548;4.918;2023-03-01T21:11:06;21.93;;;11.40;;
16977;SDS011;8605;52.548;4.918;2023-03-01T21:16:10;21.17;;;10.00;;
16977;SDS011;8605;52.548;4.918;2023-03-01T21:21:17;15.07;;;9.00;;
16977;SDS011;8605;52.548;4.918;2023-03-01T21:26:21;29.27;;;12.63;;
16977;SDS011;8605;52.548;4.918;2023-03-01T21:31:25;18.37;;;10.07;;
16977;SDS011;8605;52.548;4.918;2023-03-01T21:36:30;19.87;;;10.10;;
16977;SDS011;8605;52.548;4.918;2023-03-01T21:41:35;20.77;;;9.97;;
16977;SDS011;8605;52.548;4.918;2023-03-01T21:46:39;18.77;;;9.80;;
16977;SDS011;8605;52.548;4.918;2023-03-01T21:51:43;21.10;;;10.73;;
16977;SDS011;8605;52.548;4.918;2023-03-01T21:56:47;15.63;;;8.90;;
16977;SDS011;8605;52.548;4.918;2023-03-01T22:01:51;19.60;;;10.93;;
16977;SDS011;8605;52.548;4.918;2023-03-01T22:06:55;21.90;;;11.07;;
16977;SDS011;8605;52.548;4.918;2023-03-01T22:11:58;22.47;;;11.50;;
16977;SDS011;8605;52.548;4.918;2023-03-01T22:17:03;22.87;;;11.50;;
16977;SDS011;8605;52.548;4.918;2023-03-01T22:22:07;21.00;;;10.97;;
16977;SDS011;8605;52.548;4.918;2023-03-01T22:27:10;20.33;;;11.67;;
16977;SDS011;8605;52.548;4.918;2023-03-01T22:32:13;21.80;;;11.93;;
16977;SDS011;8605;52.548;4.918;2023-03-01T22:37:18;21.40;;;10.87;;
16977;SDS011;8605;52.548;4.918;2023-03-01T22:42:21;32.30;;;11.70;;
16977;SDS011;8605;52.548;4.918;2023-03-01T22:47:24;19.80;;;11.87;;
16977;SDS011;8605;52.548;4.918;2023-03-01T22:52:29;26.33;;;12.40;;
16977;SDS011;8605;52.548;4.918;2023-03-01T22:57:32;24.57;;;11.47;;
16977;SDS011;8605;52.548;4.918;2023-03-01T23:02:34;21.73;;;11.37;;
16977;SDS011;8605;52.548;4.918;2023-03-01T23:07:41;30.33;;;13.37;;
16977;SDS011;8605;52.548;4.918;2023-03-01T23:12:45;26.03;;;13.20;;
16977;SDS011;8605;52.548;4.918;2023-03-01T23:17:48;25.63;;;14.47;;
16977;SDS011;8605;52.548;4.918;2023-03-01T23:22:52;30.27;;;15.20;;
16977;SDS011;8605;52.548;4.918;2023-03-01T23:28:02;28.23;;;14.90;;
16977;SDS011;8605;52.548;4.918;2023-03-01T23:33:05;33.33;;;16.53;;
16977;SDS011;8605;52.548;4.918;2023-03-01T23:38:09;29.70;;;15.53;;
16977;SDS011;8605;52.548;4.918;2023-03-01T23:43:12;30.63;;;16.73;;
16977;SDS011;8605;52.548;4.918;2023-03-01T23:48:16;42.47;;;18.27;;
16977;SDS011;8605;52.548;4.918;2023-03-01T23:53:21;39.73;;;19.77;;
16977;SDS011;8605;52.548;4.918;2023-03-01T23:58:24;32.97;;;18.60;;
